createdAt,value
2022-08-28T00:01:57.157Z,100690.38
2022-08-28T00:04:23.751Z,100684.16
2022-08-28T00:06:50.110Z,100684.16
2022-08-28T00:09:16.447Z,100685.53
2022-08-28T00:11:42.753Z,100690.16
2022-08-28T00:14:09.031Z,100690.97
2022-08-28T00:16:35.422Z,100684.44
2022-08-28T00:19:01.707Z,100693.44
2022-08-28T00:21:28.061Z,100692.88
2022-08-28T00:23:57.246Z,100705.94
2022-08-28T00:26:23.604Z,100700.78
2022-08-28T00:28:51.148Z,100697.22
2022-08-28T00:31:17.751Z,100695.59
2022-08-28T00:33:44.089Z,100696.44
2022-08-28T00:36:10.405Z,100698.06
2022-08-28T00:38:36.718Z,100684.72
2022-08-28T00:41:03.766Z,100693.16
2022-08-28T00:43:30.453Z,100691.81
2022-08-28T00:45:56.816Z,100693.16
2022-08-28T00:48:23.129Z,100681.47
2022-08-28T00:50:49.506Z,100688.00
2022-08-28T00:53:15.833Z,100674.38
2022-08-28T00:55:42.277Z,100675.19
2022-08-28T00:58:08.608Z,100677.91
2022-08-28T01:00:34.953Z,100671.97
2022-08-28T01:03:01.397Z,100675.19
2022-08-28T01:05:28.037Z,100673.81
2022-08-28T01:07:54.595Z,100674.09
2022-08-28T01:10:20.945Z,100669.97
2022-08-28T01:12:48.371Z,100674.38
2022-08-28T01:15:15.005Z,100677.41
2022-08-28T01:17:43.105Z,100673.56
2022-08-28T01:20:09.626Z,100673.84
2022-08-28T01:22:35.969Z,100680.41
2022-08-28T01:25:02.337Z,100682.03
2022-08-28T01:27:28.961Z,100686.09
2022-08-28T01:29:55.456Z,100684.25
2022-08-28T01:32:22.107Z,100681.22
2022-08-28T01:34:48.443Z,100678.78
2022-08-28T01:37:14.762Z,100684.25
2022-08-28T01:39:41.280Z,100690.47
2022-08-28T01:42:07.644Z,100689.69
2022-08-28T01:44:33.932Z,100683.41
2022-08-28T01:47:00.354Z,100684.53
2022-08-28T01:49:26.869Z,100691.03
2022-08-28T01:51:54.722Z,100695.41
2022-08-28T01:54:21.246Z,100695.69
2022-08-28T01:56:47.650Z,100684.81
2022-08-28T01:59:13.939Z,100688.31
2022-08-28T02:01:40.442Z,100682.59
2022-08-28T02:04:06.920Z,100696.50
2022-08-28T02:06:33.246Z,100699.22
2022-08-28T02:08:59.621Z,100695.16
2022-08-28T02:11:26.068Z,100699.22
2022-08-28T02:13:54.332Z,100694.88
2022-08-28T02:16:22.661Z,100697.09
2022-08-28T02:18:49.098Z,100700.31
2022-08-28T02:21:15.566Z,100704.66
2022-08-28T02:23:41.890Z,100702.25
2022-08-28T02:26:08.187Z,100698.41
2022-08-28T02:28:34.536Z,100701.16
2022-08-28T02:31:01.116Z,100699.81
2022-08-28T02:33:27.554Z,100698.44
2022-08-28T02:35:53.913Z,100699.53
2022-08-28T02:38:20.237Z,100698.16
2022-08-28T02:40:46.629Z,100695.41
2022-08-28T02:43:13.212Z,100693.53
2022-08-28T02:45:39.750Z,100694.09
2022-08-28T02:48:11.977Z,100694.88
2022-08-28T02:50:43.264Z,100698.66
2022-08-28T02:53:09.908Z,100706.03
2022-08-28T02:55:36.254Z,100696.50
2022-08-28T02:58:02.589Z,100690.81
2022-08-28T03:00:28.893Z,100691.88
2022-08-28T03:02:55.369Z,100704.16
2022-08-28T03:05:21.830Z,100698.16
2022-08-28T03:07:48.130Z,100701.94
2022-08-28T03:10:14.605Z,100698.69
2022-08-28T03:12:40.974Z,100700.88
2022-08-28T03:15:07.487Z,100698.94
2022-08-28T03:17:33.944Z,100702.53
2022-08-28T03:20:00.726Z,100702.50
2022-08-28T03:22:27.202Z,100704.16
2022-08-28T03:24:53.745Z,100709.84
2022-08-28T03:27:20.138Z,100704.72
2022-08-28T03:29:46.493Z,100713.72
2022-08-28T03:32:12.841Z,100711.22
2022-08-28T03:34:39.236Z,100712.84
2022-08-28T03:37:05.672Z,100712.59
2022-08-28T03:39:32.151Z,100707.16
2022-08-28T03:41:58.560Z,100717.50
2022-08-28T03:44:25.019Z,100712.31
2022-08-28T03:46:51.565Z,100714.78
2022-08-28T03:49:18.221Z,100716.16
2022-08-28T03:51:46.079Z,100716.16
2022-08-28T03:54:12.621Z,100721.31
2022-08-28T03:56:38.976Z,100722.13
2022-08-28T03:59:05.482Z,100722.66
2022-08-28T04:01:32.021Z,100721.06
2022-08-28T04:03:58.616Z,100734.13
2022-08-28T04:06:24.953Z,100733.31
2022-08-28T04:08:51.453Z,100735.22
2022-08-28T04:11:18.306Z,100737.13
2022-08-28T04:13:44.885Z,100736.84
2022-08-28T04:16:11.636Z,100744.19
2022-08-28T04:18:41.236Z,100739.56
2022-08-28T04:21:07.673Z,100737.13
2022-08-28T04:23:35.031Z,100744.47
2022-08-28T04:26:01.365Z,100746.13
2022-08-28T04:28:27.805Z,100743.13
2022-08-28T04:30:54.165Z,100743.91
2022-08-28T04:33:20.505Z,100738.22
2022-08-28T04:35:46.947Z,100743.09
2022-08-28T04:38:13.474Z,100746.13
2022-08-28T04:40:41.022Z,100747.19
2022-08-28T04:43:07.439Z,100756.72
2022-08-28T04:45:33.822Z,100747.75
2022-08-28T04:48:00.286Z,100757.03
2022-08-28T04:50:31.710Z,100758.09
2022-08-28T04:52:58.013Z,100750.47
2022-08-28T04:55:24.417Z,100755.63
2022-08-28T04:58:10.731Z,100757.03
2022-08-28T05:00:37.135Z,100763.81
2022-08-28T05:03:03.537Z,100760.00
2022-08-28T05:05:29.937Z,100764.09
2022-08-28T05:07:56.319Z,100767.91
2022-08-28T05:10:23.240Z,100758.63
2022-08-28T05:12:49.624Z,100763.81
2022-08-28T05:15:16.009Z,100765.47
2022-08-28T05:17:42.330Z,100771.44
2022-08-28T05:20:08.692Z,100770.38
2022-08-28T05:22:35.017Z,100774.47
2022-08-28T05:25:01.368Z,100778.03
2022-08-28T05:27:28.008Z,100778.81
2022-08-28T05:29:57.347Z,100782.91
2022-08-28T05:32:27.602Z,100783.97
2022-08-28T05:34:54.454Z,100785.34
2022-08-28T05:37:20.806Z,100783.72
2022-08-28T05:39:47.198Z,100788.91
2022-08-28T05:42:13.824Z,100796.53
2022-08-28T05:44:40.245Z,100781.25
2022-08-28T05:47:06.510Z,100792.16
2022-08-28T05:49:32.962Z,100793.25
2022-08-28T05:51:59.272Z,100797.38
2022-08-28T05:54:25.653Z,100798.47
2022-08-28T05:56:51.956Z,100797.13
2022-08-28T05:59:18.386Z,100797.09
2022-08-28T06:01:44.766Z,100798.16
2022-08-28T06:04:11.228Z,100797.13
2022-08-28T06:06:37.606Z,100798.75
2022-08-28T06:09:03.904Z,100802.00
2022-08-28T06:11:30.989Z,100801.19
2022-08-28T06:13:57.751Z,100809.63
2022-08-28T06:16:24.366Z,100805.81
2022-08-28T06:18:51.154Z,100798.75
2022-08-28T06:21:17.522Z,100802.25
2022-08-28T06:23:44.034Z,100804.22
2022-08-28T06:26:11.104Z,100804.19
2022-08-28T06:28:37.581Z,100807.72
2022-08-28T06:31:23.288Z,100814.81
2022-08-28T06:33:50.361Z,100813.47
2022-08-28T06:36:16.882Z,100812.09
2022-08-28T06:38:43.400Z,100813.47
2022-08-28T06:41:09.694Z,100812.34
2022-08-28T06:43:36.082Z,100817.56
2022-08-28T06:46:02.501Z,100818.34
2022-08-28T06:48:28.984Z,100819.19
2022-08-28T06:50:55.381Z,100824.63
2022-08-28T06:53:21.725Z,100820.00
2022-08-28T06:55:48.241Z,100825.16
2022-08-28T06:58:14.671Z,100827.34
2022-08-28T07:00:41.153Z,100833.88
2022-08-28T07:03:07.672Z,100842.34
2022-08-28T07:05:34.806Z,100839.97
2022-08-28T07:08:01.150Z,100854.13
2022-08-28T07:10:27.725Z,100850.34
2022-08-28T07:12:54.110Z,100843.56
2022-08-28T07:15:20.464Z,100850.09
2022-08-28T07:17:46.838Z,100852.25
2022-08-28T07:20:13.437Z,100851.72
2022-08-28T07:22:39.804Z,100855.53
2022-08-28T07:25:06.181Z,100853.91
2022-08-28T07:27:32.574Z,100855.84
2022-08-28T07:29:58.942Z,100852.25
2022-08-28T07:32:25.529Z,100859.38
2022-08-28T07:34:52.006Z,100869.69
2022-08-28T07:37:18.752Z,100866.44
2022-08-28T07:39:45.273Z,100872.19
2022-08-28T07:42:11.822Z,100874.91
2022-08-28T07:44:38.221Z,100878.94
2022-08-28T07:47:04.546Z,100869.41
2022-08-28T07:49:30.926Z,100876.50
2022-08-28T07:51:57.263Z,100881.38
2022-08-28T07:54:23.960Z,100881.13
2022-08-28T07:56:50.244Z,100883.03
2022-08-28T07:59:16.989Z,100871.06
2022-08-28T08:01:43.834Z,100880.56
2022-08-28T08:04:10.524Z,100890.94
2022-08-28T08:06:36.844Z,100878.41
2022-08-28T08:09:03.217Z,100880.84
2022-08-28T08:11:31.066Z,100888.75
2022-08-28T08:13:58.980Z,100893.09
2022-08-28T08:16:25.547Z,100895.00
2022-08-28T08:18:52.039Z,100897.47
2022-08-28T08:21:18.337Z,100896.66
2022-08-28T08:23:44.700Z,100901.56
2022-08-28T08:26:11.150Z,100899.91
2022-08-28T08:28:37.569Z,100907.25
2022-08-28T08:31:04.140Z,100909.69
2022-08-28T08:33:30.478Z,100906.69
2022-08-28T08:35:56.817Z,100915.69
2022-08-28T08:38:23.327Z,100920.03
2022-08-28T08:40:49.732Z,100926.03
2022-08-28T08:43:16.190Z,100924.41
2022-08-28T08:45:42.538Z,100921.13
2022-08-28T08:48:09.595Z,100928.19
2022-08-28T08:50:37.249Z,100918.69
2022-08-28T08:53:03.552Z,100924.91
2022-08-28T08:55:29.878Z,100920.84
2022-08-28T08:57:56.381Z,100923.03
2022-08-28T09:00:22.917Z,100928.75
2022-08-28T09:02:50.174Z,100928.75
2022-08-28T09:05:16.734Z,100935.00
2022-08-28T09:07:43.212Z,100934.75
2022-08-28T09:10:09.633Z,100926.28
2022-08-28T09:12:35.962Z,100934.44
2022-08-28T09:15:02.748Z,100927.13
2022-08-28T09:17:29.156Z,100933.91
2022-08-28T09:19:55.703Z,100937.44
2022-08-28T09:22:22.096Z,100937.19
2022-08-28T09:24:48.469Z,100941.50
2022-08-28T09:27:16.942Z,100941.53
2022-08-28T09:29:43.343Z,100947.53
2022-08-28T09:32:09.734Z,100946.69
2022-08-28T09:34:38.946Z,100945.59
2022-08-28T09:37:05.834Z,100942.88
2022-08-28T09:39:32.206Z,100949.69
2022-08-28T09:41:58.664Z,100946.16
2022-08-28T09:44:25.197Z,100951.34
2022-08-28T09:46:52.490Z,100945.34
2022-08-28T09:49:18.913Z,100947.25
2022-08-28T09:51:45.470Z,100945.88
2022-08-28T09:54:11.881Z,100947.78
2022-08-28T09:56:38.262Z,100947.25
2022-08-28T09:59:04.665Z,100948.88
2022-08-28T10:01:31.096Z,100945.63
2022-08-28T10:03:57.496Z,100948.63
2022-08-28T10:06:24.933Z,100951.88
2022-08-28T10:08:53.132Z,100949.69
2022-08-28T10:11:19.741Z,100950.50
2022-08-28T10:13:46.122Z,100949.69
2022-08-28T10:16:12.532Z,100953.78
2022-08-28T10:18:38.968Z,100948.88
2022-08-28T10:21:05.647Z,100953.78
2022-08-28T10:23:32.218Z,100959.22
2022-08-28T10:25:58.662Z,100960.03
2022-08-28T10:28:25.057Z,100965.19
2022-08-28T10:30:51.419Z,100959.75
2022-08-28T10:33:17.953Z,100967.91
2022-08-28T10:35:44.277Z,100960.00
2022-08-28T10:38:11.104Z,100955.94
2022-08-28T10:40:37.702Z,100959.50
2022-08-28T10:43:04.438Z,100958.13
2022-08-28T10:45:31.327Z,100964.38
2022-08-28T10:47:57.638Z,100959.75
2022-08-28T10:50:23.983Z,100959.75
2022-08-28T10:52:50.359Z,100958.94
2022-08-28T10:55:16.665Z,100961.38
2022-08-28T10:57:43.015Z,100966.53
2022-08-28T11:00:09.369Z,100966.81
2022-08-28T11:02:35.829Z,100967.38
2022-08-28T11:05:02.268Z,100972.28
2022-08-28T11:07:29.246Z,100971.72
2022-08-28T11:09:55.557Z,100971.44
2022-08-28T11:12:21.931Z,100977.72
2022-08-28T11:14:48.907Z,100975.81
2022-08-28T11:17:15.362Z,100975.00
2022-08-28T11:19:44.501Z,100975.28
2022-08-28T11:22:11.797Z,100969.56
2022-08-28T11:24:38.292Z,100982.34
2022-08-28T11:27:07.903Z,100984.84
2022-08-28T11:29:34.217Z,100981.56
2022-08-28T11:32:00.525Z,100988.09
2022-08-28T11:34:26.874Z,100985.63
2022-08-28T11:36:53.404Z,100987.25
2022-08-28T11:39:19.717Z,100976.09
2022-08-28T11:41:46.093Z,100979.38
2022-08-28T11:44:12.437Z,100979.91
2022-08-28T11:46:38.923Z,100980.47
2022-08-28T11:49:05.487Z,100984.00
2022-08-28T11:51:32.138Z,100978.03
2022-08-28T11:53:58.469Z,100976.66
2022-08-28T11:56:28.287Z,100985.91
2022-08-28T11:58:58.114Z,100976.66
2022-08-28T12:01:24.507Z,100969.03
2022-08-28T12:03:50.966Z,100976.66
2022-08-28T12:06:17.392Z,100979.38
2022-08-28T12:08:43.823Z,100979.38
2022-08-28T12:11:10.238Z,100974.72
2022-08-28T12:13:36.562Z,100971.75
2022-08-28T12:16:03.092Z,100994.63
2022-08-28T12:18:29.814Z,100979.63
2022-08-28T12:21:00.186Z,100984.53
2022-08-28T12:23:27.060Z,100986.97
2022-08-28T12:25:53.510Z,100991.59
2022-08-28T12:28:26.645Z,100996.50
2022-08-28T12:30:53.329Z,100987.50
2022-08-28T12:33:19.809Z,100990.22
2022-08-28T12:35:46.281Z,100995.13
2022-08-28T12:38:12.730Z,100998.66
2022-08-28T12:40:39.361Z,100998.94
2022-08-28T12:43:05.697Z,100996.75
2022-08-28T12:45:32.077Z,100998.38
2022-08-28T12:47:58.482Z,100989.69
2022-08-28T12:50:24.914Z,101008.75
2022-08-28T12:52:51.469Z,100998.94
2022-08-28T12:55:23.771Z,101003.31
2022-08-28T12:57:50.878Z,100995.16
2022-08-28T13:00:17.334Z,101008.50
2022-08-28T13:02:46.503Z,100997.34
2022-08-28T13:05:16.494Z,101002.78
2022-08-28T13:07:42.894Z,101000.06
2022-08-28T13:10:09.550Z,101005.25
2022-08-28T13:12:54.487Z,101012.56
2022-08-28T13:15:24.431Z,101007.13
2022-08-28T13:17:50.995Z,101001.16
2022-08-28T13:20:17.439Z,101009.59
2022-08-28T13:22:50.538Z,101003.88
2022-08-28T13:25:17.593Z,101003.88
2022-08-28T13:27:43.957Z,101005.50
2022-08-28T13:30:10.330Z,100999.25
2022-08-28T13:32:36.716Z,100999.25
2022-08-28T13:35:03.254Z,101003.34
2022-08-28T13:37:29.634Z,101001.13
2022-08-28T13:39:56.230Z,101010.13
2022-08-28T13:42:22.746Z,101004.41
2022-08-28T13:44:49.120Z,101009.03
2022-08-28T13:47:15.566Z,101012.03
2022-08-28T13:49:41.882Z,101018.81
2022-08-28T13:52:08.303Z,101021.28
2022-08-28T13:54:35.889Z,101020.72
2022-08-28T13:57:02.373Z,101023.75
2022-08-28T13:59:30.039Z,101022.09
2022-08-28T14:01:57.506Z,101022.94
2022-08-28T14:04:24.149Z,101030.25
2022-08-28T14:06:50.813Z,101026.75
2022-08-28T14:09:17.766Z,101031.63
2022-08-28T14:11:44.439Z,101034.91
2022-08-28T14:14:10.823Z,101035.44
2022-08-28T14:16:39.764Z,101040.34
2022-08-28T14:19:07.279Z,101040.88
2022-08-28T14:21:33.665Z,101038.97
2022-08-28T14:24:00.014Z,101036.00
2022-08-28T14:26:26.396Z,101037.63
2022-08-28T14:28:52.819Z,101031.06
2022-08-28T14:31:19.396Z,101037.34
2022-08-28T14:33:45.777Z,101027.28
2022-08-28T14:36:12.210Z,101028.09
2022-08-28T14:38:38.557Z,101028.63
2022-08-28T14:41:04.970Z,101038.69
2022-08-28T14:43:31.460Z,101029.44
2022-08-28T14:45:57.756Z,101026.44
2022-08-28T14:48:24.258Z,101024.81
2022-08-28T14:50:50.806Z,101026.19
2022-08-28T14:53:17.201Z,101027.81
2022-08-28T14:55:43.765Z,101031.34
2022-08-28T14:58:10.354Z,101028.63
2022-08-28T15:00:36.735Z,101028.63
2022-08-28T15:03:03.411Z,101039.25
2022-08-28T15:05:29.742Z,101041.97
2022-08-28T15:07:56.098Z,101040.88
2022-08-28T15:10:22.717Z,101031.63
2022-08-28T15:12:49.210Z,101042.50
2022-08-28T15:15:16.086Z,101041.72
2022-08-28T15:17:42.481Z,101045.78
2022-08-28T15:20:08.914Z,101045.78
2022-08-28T15:22:35.405Z,101040.34
2022-08-28T15:25:01.705Z,101043.88
2022-08-28T15:27:28.106Z,101049.03
2022-08-28T15:29:54.642Z,101048.22
2022-08-28T15:32:20.972Z,101044.41
2022-08-28T15:34:47.350Z,101049.03
2022-08-28T15:37:13.714Z,101046.88
2022-08-28T15:39:40.022Z,101062.38
2022-08-28T15:42:06.397Z,101051.50
2022-08-28T15:44:32.982Z,101057.78
2022-08-28T15:46:59.424Z,101053.13
2022-08-28T15:49:26.144Z,101059.41
2022-08-28T15:51:52.614Z,101051.22
2022-08-28T15:54:19.130Z,101055.56
2022-08-28T15:56:45.582Z,101053.94
2022-08-28T15:59:14.301Z,101052.03
2022-08-28T16:01:41.073Z,101056.66
2022-08-28T16:04:07.715Z,101050.97
2022-08-28T16:06:34.185Z,101051.22
2022-08-28T16:09:00.479Z,101049.03
2022-08-28T16:11:26.889Z,101046.31
2022-08-28T16:13:54.233Z,101050.97
2022-08-28T16:16:20.866Z,101051.75
2022-08-28T16:18:47.370Z,101047.41
2022-08-28T16:21:13.949Z,101049.84
2022-08-28T16:23:42.145Z,101047.13
2022-08-28T16:26:08.484Z,101047.13
2022-08-28T16:28:34.865Z,101043.59
2022-08-28T16:31:04.559Z,101041.69
2022-08-28T16:33:33.749Z,101043.31
2022-08-28T16:36:00.157Z,101038.13
2022-08-28T16:38:26.566Z,101040.88
2022-08-28T16:40:52.953Z,101044.69
2022-08-28T16:43:19.326Z,101046.31
2022-08-28T16:45:45.772Z,101056.13
2022-08-28T16:48:12.329Z,101047.97
2022-08-28T16:50:39.084Z,101044.41
2022-08-28T16:53:07.193Z,101046.31
2022-08-28T16:55:34.417Z,101046.31
2022-08-28T16:58:00.737Z,101045.50
2022-08-28T17:00:27.622Z,101045.50
2022-08-28T17:02:54.278Z,101041.97
2022-08-28T17:05:20.781Z,101048.22
2022-08-28T17:07:47.224Z,101050.13
2022-08-28T17:10:13.625Z,101044.69
2022-08-28T17:12:40.043Z,101043.59
2022-08-28T17:15:06.406Z,101048.50
2022-08-28T17:17:32.805Z,101051.22
2022-08-28T17:19:59.182Z,101049.59
2022-08-28T17:22:27.300Z,101048.50
2022-08-28T17:24:54.073Z,101059.41
2022-08-28T17:27:22.290Z,101069.47
2022-08-28T17:29:49.267Z,101058.84
2022-08-28T17:32:15.668Z,101065.94
2022-08-28T17:34:42.019Z,101065.09
2022-08-28T17:37:08.408Z,101069.72
2022-08-28T17:39:34.748Z,101065.94
2022-08-28T17:42:01.094Z,101062.66
2022-08-28T17:44:29.109Z,101070.81
2022-08-28T17:46:55.663Z,101069.72
2022-08-28T17:49:22.151Z,101064.28
2022-08-28T17:51:48.501Z,101067.00
2022-08-28T17:54:14.841Z,101071.91
2022-08-28T17:56:41.224Z,101075.44
2022-08-28T17:59:07.801Z,101071.66
2022-08-28T18:01:34.259Z,101079.00
2022-08-28T18:04:00.652Z,101082.53
2022-08-28T18:06:27.236Z,101085.53
2022-08-28T18:08:53.894Z,101086.34
2022-08-28T18:11:20.301Z,101084.72
2022-08-28T18:13:46.950Z,101086.63
2022-08-28T18:16:13.539Z,101099.94
2022-08-28T18:18:40.103Z,101097.53
2022-08-28T18:21:06.664Z,101102.16
2022-08-28T18:23:33.278Z,101100.25
2022-08-28T18:25:59.655Z,101113.03
2022-08-28T18:28:26.293Z,101102.97
2022-08-28T18:30:52.755Z,101107.84
2022-08-28T18:33:19.381Z,101102.97
2022-08-28T18:35:49.409Z,101107.84
2022-08-28T18:38:15.925Z,101104.03
2022-08-28T18:40:42.512Z,101102.41
2022-08-28T18:43:08.885Z,101108.94
2022-08-28T18:45:35.186Z,101107.31
2022-08-28T18:48:01.543Z,101107.06
2022-08-28T18:50:27.924Z,101110.56
2022-08-28T18:52:54.455Z,101110.56
2022-08-28T18:55:21.237Z,101111.69
2022-08-28T18:57:50.013Z,101110.06
2022-08-28T19:00:18.252Z,101110.06
2022-08-28T19:02:44.781Z,101106.50
2022-08-28T19:05:11.698Z,101110.06
2022-08-28T19:07:38.089Z,101105.66
2022-08-28T19:10:04.549Z,101106.75
2022-08-28T19:12:30.875Z,101112.22
2022-08-28T19:14:57.237Z,101113.84
2022-08-28T19:17:23.914Z,101111.13
2022-08-28T19:19:50.416Z,101115.75
2022-08-28T19:22:16.941Z,101112.22
2022-08-28T19:24:43.248Z,101114.13
2022-08-28T19:27:10.011Z,101119.84
2022-08-28T19:29:36.319Z,101115.19
2022-08-28T19:32:02.713Z,101114.41
2022-08-28T19:34:29.037Z,101119.84
2022-08-28T19:36:55.610Z,101126.09
2022-08-28T19:39:23.599Z,101129.91
2022-08-28T19:41:50.222Z,101129.91
2022-08-28T19:44:16.536Z,101129.91
2022-08-28T19:46:43.297Z,101133.72
2022-08-28T19:49:09.685Z,101136.19
2022-08-28T19:51:36.117Z,101135.34
2022-08-28T19:54:02.817Z,101129.38
2022-08-28T19:56:29.281Z,101133.72
2022-08-28T19:58:55.665Z,101134.81
2022-08-28T20:01:22.078Z,101132.09
2022-08-28T20:03:48.522Z,101141.06
2022-08-28T20:06:15.048Z,101143.78
2022-08-28T20:08:41.516Z,101144.88
2022-08-28T20:11:08.046Z,101149.50
2022-08-28T20:13:34.577Z,101148.44
2022-08-28T20:16:01.010Z,101154.41
2022-08-28T20:18:27.605Z,101149.50
2022-08-28T20:20:54.205Z,101153.06
2022-08-28T20:23:20.593Z,101152.53
2022-08-28T20:25:46.913Z,101157.97
2022-08-28T20:28:13.470Z,101155.25
2022-08-28T20:30:40.328Z,101155.25
2022-08-28T20:33:06.826Z,101151.94
2022-08-28T20:35:33.261Z,101151.94
2022-08-28T20:37:59.601Z,101158.22
2022-08-28T20:40:26.058Z,101160.13
2022-08-28T20:42:54.045Z,101159.03
2022-08-28T20:45:20.422Z,101161.75
2022-08-28T20:47:46.817Z,101159.03
2022-08-28T20:50:13.220Z,101162.84
2022-08-28T20:52:39.594Z,101164.19
2022-08-28T20:55:06.146Z,101165.03
2022-08-28T20:57:32.505Z,101158.22
2022-08-28T21:00:02.244Z,101161.22
2022-08-28T21:02:31.705Z,101169.66
2022-08-28T21:04:58.001Z,101167.19
2022-08-28T21:07:24.473Z,101169.13
2022-08-28T21:10:04.626Z,101168.28
2022-08-28T21:12:33.018Z,101170.75
2022-08-28T21:14:59.392Z,101175.91
2022-08-28T21:17:29.471Z,101181.63
2022-08-28T21:19:56.854Z,101187.06
2022-08-28T21:22:23.369Z,101177.28
2022-08-28T21:24:50.775Z,101172.91
2022-08-28T21:27:18.502Z,101180.81
2022-08-28T21:29:45.084Z,101176.44
2022-08-28T21:32:11.721Z,101176.72
2022-08-28T21:34:38.042Z,101188.97
2022-08-28T21:37:04.358Z,101190.06
2022-08-28T21:39:30.933Z,101183.78
2022-08-28T21:41:57.316Z,101179.69
2022-08-28T21:44:23.629Z,101185.97
2022-08-28T21:46:50.232Z,101183.25
2022-08-28T21:49:16.677Z,101182.44
2022-08-28T21:51:43.219Z,101180.78
2022-08-28T21:54:09.580Z,101190.31
2022-08-28T21:56:36.109Z,101190.31
2022-08-28T21:59:02.450Z,101191.69
2022-08-28T22:01:28.920Z,101195.78
2022-08-28T22:03:55.402Z,101200.38
2022-08-28T22:06:21.773Z,101189.78
2022-08-28T22:08:48.530Z,101200.94
2022-08-28T22:11:14.929Z,101203.09
2022-08-28T22:13:43.589Z,101194.41
2022-08-28T22:16:10.017Z,101196.03
2022-08-28T22:18:36.603Z,101195.50
2022-08-28T22:21:02.929Z,101187.59
2022-08-28T22:23:29.298Z,101186.25
2022-08-28T22:25:55.656Z,101193.31
2022-08-28T22:28:23.286Z,101197.13
2022-08-28T22:30:49.688Z,101195.50
2022-08-28T22:33:16.375Z,101200.94
2022-08-28T22:35:42.850Z,101207.75
2022-08-28T22:38:09.738Z,101206.91
2022-08-28T22:40:36.175Z,101203.34
2022-08-28T22:43:02.593Z,101203.94
2022-08-28T22:45:28.994Z,101206.91
2022-08-28T22:47:55.398Z,101212.34
2022-08-28T22:50:21.697Z,101215.06
2022-08-28T22:52:48.001Z,101208.53
2022-08-28T22:55:14.318Z,101220.53
2022-08-28T22:57:40.761Z,101223.50
2022-08-28T23:00:07.296Z,101223.50
2022-08-28T23:02:33.829Z,101222.16
2022-08-28T23:05:00.212Z,101216.97
2022-08-28T23:07:26.726Z,101232.50
2022-08-28T23:09:53.049Z,101227.84
2022-08-28T23:12:19.458Z,101233.03
2022-08-28T23:14:48.528Z,101229.22
2022-08-28T23:17:15.253Z,101230.88
2022-08-28T23:19:43.293Z,101238.75
2022-08-28T23:22:13.889Z,101232.75
2022-08-28T23:24:40.214Z,101229.78
2022-08-28T23:27:32.369Z,101227.59
2022-08-28T23:29:53.190Z,101229.22
2022-08-28T23:32:20.088Z,101225.69
2022-08-28T23:34:46.506Z,101231.41
2022-08-28T23:37:13.005Z,101227.59
2022-08-28T23:39:39.410Z,101233.03
2022-08-28T23:42:05.780Z,101225.97
2022-08-28T23:44:32.309Z,101228.69
2022-08-28T23:46:58.790Z,101218.06
2022-08-28T23:49:27.027Z,101229.78
2022-08-28T23:51:53.554Z,101228.41
2022-08-28T23:54:19.912Z,101228.09
2022-08-28T23:56:46.590Z,101229.78
2022-08-28T23:59:12.949Z,101232.50
